Time;durP1;ratioP1;P1;durP2;ratioP2;P2;SDS_P1;SDS_P2;PMS_P1;PMS_P2;Temp;Humidity;BMP_temperature;BMP_pressure;BME280_temperature;BME280_humidity;BME280_pressure;Samples;Min_cycle;Max_cycle;Signal;HPM_P1;HPM_P2
2024/01/07 00:02:14;;;;;;;4.00;3.70;;;;;;;3.60;100.00;-23916.84;5030419;28;20623;-67
2024/01/07 00:04:40;;;;;;;3.57;3.03;;;;;;;3.86;100.00;-23924.25;5030387;28;20258;-67
2024/01/07 00:07:05;;;;;;;2.63;2.47;;;;;;;3.51;100.00;-23914.25;5030585;28;20167;-69
2024/01/07 00:09:31;;;;;;;4.37;3.97;;;;;;;3.99;100.00;-23927.81;5030382;28;20203;-66
2024/01/07 00:11:56;;;;;;;5.97;4.00;;;;;;;4.03;100.00;-23928.78;5030612;28;20321;-68
2024/01/07 00:14:22;;;;;;;3.27;2.97;;;;;;;4.20;100.00;-23933.78;5030124;28;20167;-67
2024/01/07 00:16:47;;;;;;;4.13;3.47;;;;;;;4.32;100.00;-23937.06;5030165;28;20225;-64
2024/01/07 00:19:13;;;;;;;3.40;3.20;;;;;;;4.52;100.00;-23942.59;5033264;28;20203;-67
2024/01/07 00:21:38;;;;;;;3.83;3.27;;;;;;;4.61;100.00;-23945.16;5039442;28;20195;-66
2024/01/07 00:24:04;;;;;;;4.73;3.70;;;;;;;4.60;100.00;-23944.88;5036649;28;20171;-69
2024/01/07 00:26:29;;;;;;;4.63;3.53;;;;;;;4.55;100.00;-23943.59;5033739;28;20179;-67
2024/01/07 00:28:55;;;;;;;2.90;2.70;;;;;;;4.67;100.00;-23946.88;5034083;28;20250;-69
2024/01/07 00:31:20;;;;;;;3.73;3.33;;;;;;;4.56;100.00;-23943.75;5034220;28;20163;-66
2024/01/07 00:33:45;;;;;;;2.67;2.47;;;;;;;4.48;100.00;-23941.63;5033792;28;20273;-68
2024/01/07 00:36:11;;;;;;;4.13;2.87;;;;;;;4.74;100.00;-23948.88;5033671;28;20283;-65
2024/01/07 00:38:36;;;;;;;2.83;2.63;;;;;;;4.53;100.00;-23942.91;5032510;28;20217;-64
2024/01/07 00:41:02;;;;;;;3.27;3.00;;;;;;;4.62;100.00;-23945.47;5034012;28;20176;-66
2024/01/07 00:43:27;;;;;;;2.93;2.73;;;;;;;4.73;100.00;-23948.59;5034117;28;20183;-67
2024/01/07 00:45:52;;;;;;;4.40;2.70;;;;;;;5.00;100.00;-23956.13;5033453;28;20171;-65
2024/01/07 00:48:18;;;;;;;2.67;2.47;;;;;;;5.02;100.00;-23956.84;5033269;28;20559;-67
2024/01/07 00:50:43;;;;;;;3.10;2.70;;;;;;;4.71;100.00;-23948.16;5033706;28;20265;-66
2024/01/07 00:53:09;;;;;;;4.13;3.83;;;;;;;4.98;100.00;-23955.69;5033462;28;20179;-68
2024/01/07 00:55:37;;;;;;;3.83;2.63;;;;;;;4.77;100.00;-23949.72;5033685;28;20183;-68
2024/01/07 00:58:02;;;;;;;3.60;3.30;;;;;;;5.07;100.00;-23958.25;5033470;28;20172;-65
2024/01/07 01:00:28;;;;;;;4.07;2.80;;;;;;;5.12;100.00;-23959.69;5033125;28;20202;-68
2024/01/07 01:02:54;;;;;;;2.93;2.73;;;;;;;5.38;100.00;-23966.78;5033014;28;20279;-66
2024/01/07 01:05:19;;;;;;;2.93;2.63;;;;;;;5.43;100.00;-23968.34;5033585;28;20689;-66
2024/01/07 01:07:45;;;;;;;3.00;2.80;;;;;;;5.53;100.00;-23971.06;5032964;28;20252;-67
2024/01/07 01:10:10;;;;;;;2.53;2.33;;;;;;;5.51;100.00;-23970.47;5033268;28;20181;-68
2024/01/07 01:12:35;;;;;;;3.07;2.40;;;;;;;5.48;100.00;-23969.63;5032985;28;20191;-67
2024/01/07 01:15:01;;;;;;;2.97;2.67;;;;;;;5.26;100.00;-23963.53;5032905;28;20197;-69
2024/01/07 01:17:26;;;;;;;2.67;2.47;;;;;;;4.80;100.00;-23950.72;5032877;28;20206;-67
2024/01/07 01:19:52;;;;;;;3.47;2.80;;;;;;;4.99;100.00;-23956.00;5032866;28;20227;-65
2024/01/07 01:22:17;;;;;;;3.40;3.13;;;;;;;5.03;100.00;-23957.13;5032953;28;20229;-67
2024/01/07 01:24:45;;;;;;;6.00;3.47;;;;;;;5.19;100.00;-23961.53;5040943;28;20179;-69
2024/01/07 01:27:12;;;;;;;3.33;3.03;;;;;;;4.95;100.00;-23954.84;5032914;28;20178;-67
2024/01/07 01:29:37;;;;;;;5.63;3.00;;;;;;;4.99;100.00;-23956.00;5030701;28;20167;-67
2024/01/07 01:32:03;;;;;;;4.07;3.13;;;;;;;5.27;100.00;-23963.81;5032320;28;20229;-64
2024/01/07 01:34:28;;;;;;;2.43;2.23;;;;;;;4.99;100.00;-23956.00;5033040;28;20186;-68
2024/01/07 01:36:53;;;;;;;4.37;3.40;;;;;;;5.06;100.00;-23957.97;5032513;28;20280;-68
2024/01/07 01:39:19;;;;;;;7.07;3.20;;;;;;;5.28;100.00;-23964.22;5032332;28;20565;-69
2024/01/07 01:41:44;;;;;;;3.50;3.20;;;;;;;5.39;100.00;-23967.22;5032603;28;20182;-67
2024/01/07 01:44:10;;;;;;;4.50;2.63;;;;;;;4.94;100.00;-23954.41;5032326;28;20172;-65
2024/01/07 01:46:35;;;;;;;2.87;2.67;;;;;;;5.08;100.00;-23958.41;5032002;28;20181;-66
2024/01/07 01:49:01;;;;;;;3.83;3.27;;;;;;;5.56;100.00;-23972.06;5032227;28;20175;-68
2024/01/07 01:51:27;;;;;;;2.93;2.63;;;;;;;5.07;100.00;-23958.13;5031930;28;20246;-69
2024/01/07 01:53:54;;;;;;;1.87;1.77;;;;;;;5.70;100.00;-23975.88;5032216;28;20287;-66
2024/01/07 01:56:23;;;;;;;2.50;2.33;;;;;;;6.01;100.00;-23984.69;5032100;28;20203;-67
2024/01/07 01:58:48;;;;;;;3.17;2.70;;;;;;;6.09;100.00;-23986.84;5031965;28;20175;-70
2024/01/07 02:01:14;;;;;;;3.67;3.37;;;;;;;5.89;100.00;-23981.28;5031857;28;20253;-67
2024/01/07 02:03:39;;;;;;;4.57;3.03;;;;;;;5.96;100.00;-23983.28;5032080;28;20223;-66
2024/01/07 02:06:05;;;;;;;2.40;2.20;;;;;;;6.09;100.00;-23986.97;5032286;28;20191;-69
2024/01/07 02:08:31;;;;;;;3.70;3.37;;;;;;;6.44;100.00;-23996.63;5031723;28;20287;-65
2024/01/07 02:10:56;;;;;;;2.00;1.90;;;;;;;6.41;100.00;-23995.78;5031706;28;20240;-66
2024/01/07 02:13:22;;;;;;;3.30;2.37;;;;;;;6.77;100.00;-24006.00;5031471;28;20171;-67
2024/01/07 02:15:47;;;;;;;7.57;2.40;;;;;;;6.75;100.00;-24005.44;5031331;28;20221;-67
2024/01/07 02:18:13;;;;;;;4.33;3.20;;;;;;;6.74;100.00;-24005.16;5031316;28;20172;-68
2024/01/07 02:20:38;;;;;;;3.73;3.07;;;;;;;7.00;100.00;-24012.53;5030380;28;20194;-66
2024/01/07 02:23:04;;;;;;;3.93;2.87;;;;;;;6.92;100.00;-24010.25;5030963;28;20193;-66
2024/01/07 02:25:35;;;;;;;3.00;2.50;;;;;;;6.79;100.00;-24006.56;5030215;28;20657;-66
2024/01/07 02:28:00;;;;;;;6.57;3.00;;;;;;;7.00;100.00;-24012.53;5039195;28;20194;-64
2024/01/07 02:30:27;;;;;;;2.87;2.30;;;;;;;6.96;100.00;-24011.25;5031039;28;20647;-66
2024/01/07 02:32:52;;;;;;;2.57;2.37;;;;;;;7.08;100.00;-24014.78;5030996;28;20233;-69
2024/01/07 02:35:18;;;;;;;2.37;2.20;;;;;;;7.12;100.00;-24015.66;5030905;28;20186;-66
2024/01/07 02:37:43;;;;;;;6.13;3.93;;;;;;;7.42;100.00;-24024.28;5030794;28;20293;-64
2024/01/07 02:40:09;;;;;;;2.37;2.07;;;;;;;7.33;100.00;-24021.75;5030936;28;20213;-65
2024/01/07 02:42:34;;;;;;;4.07;2.80;;;;;;;7.23;100.00;-24018.91;5030890;28;20175;-67
2024/01/07 02:45:00;;;;;;;6.00;2.67;;;;;;;7.39;100.00;-24023.44;5030511;28;20258;-69
2024/01/07 02:47:25;;;;;;;5.33;3.77;;;;;;;7.36;100.00;-24022.44;5030719;28;20179;-67
2024/01/07 02:49:51;;;;;;;4.70;3.63;;;;;;;7.25;100.00;-24019.47;5030773;28;20236;-68
2024/01/07 02:52:16;;;;;;;2.13;2.03;;;;;;;7.31;100.00;-24021.03;5030125;28;20217;-66
2024/01/07 02:54:42;;;;;;;3.23;3.03;;;;;;;7.58;100.00;-24028.53;5029009;28;20168;-66
2024/01/07 02:57:07;;;;;;;4.30;2.47;;;;;;;7.75;100.00;-24033.38;5028612;28;20198;-68
2024/01/07 02:59:33;;;;;;;3.43;2.37;;;;;;;7.67;100.00;-24031.25;5028761;28;20747;-69
2024/01/07 03:01:58;;;;;;;2.43;2.23;;;;;;;7.92;100.00;-24038.19;5029097;28;20171;-68
2024/01/07 03:04:24;;;;;;;2.97;2.77;;;;;;;8.00;100.00;-24040.59;5028982;28;20163;-67
2024/01/07 03:06:49;;;;;;;6.13;2.40;;;;;;;8.10;100.00;-24043.13;5028878;28;20250;-65
2024/01/07 03:09:14;;;;;;;2.07;1.90;;;;;;;7.91;100.00;-24038.03;5030147;28;20247;-66
2024/01/07 03:11:41;;;;;;;3.40;3.20;;;;;;;7.66;100.00;-24030.81;5039267;28;20206;-65
2024/01/07 03:14:06;;;;;;;4.10;3.70;;;;;;;7.83;100.00;-24035.63;5030740;28;20631;-64
2024/01/07 03:16:32;;;;;;;6.13;2.90;;;;;;;7.65;100.00;-24030.53;5028924;28;20240;-67
2024/01/07 03:18:57;;;;;;;4.20;3.13;;;;;;;7.86;100.00;-24036.63;5029441;28;20199;-67
2024/01/07 03:21:23;;;;;;;3.67;2.87;;;;;;;7.82;100.00;-24035.34;5030913;28;20381;-68
2024/01/07 03:23:50;;;;;;;2.60;2.33;;;;;;;7.66;100.00;-24030.94;5030740;28;20215;-66
2024/01/07 03:26:17;;;;;;;2.23;2.13;;;;;;;7.48;100.00;-24026.00;5030550;28;20229;-65
2024/01/07 03:28:43;;;;;;;2.67;2.47;;;;;;;7.78;100.00;-24034.34;5032067;28;20194;-66
2024/01/07 03:31:11;;;;;;;2.23;2.13;;;;;;;7.57;100.00;-24028.41;5037448;28;20580;-67
2024/01/07 03:33:40;;;;;;;2.57;2.37;;;;;;;7.57;100.00;-24028.41;5030358;28;20222;-68
2024/01/07 03:36:10;;;;;;;3.43;3.07;;;;;;;7.63;100.00;-24030.09;5030489;28;20265;-68
2024/01/07 03:38:36;;;;;;;4.90;4.03;;;;;;;7.59;100.00;-24028.81;5031031;28;20182;-66
2024/01/07 03:41:01;;;;;;;2.42;2.22;;;;;;;7.38;100.00;-24023.16;5030469;28;20178;-67
2024/01/07 03:43:27;;;;;;;3.43;3.03;;;;;;;7.31;100.00;-24021.03;5028792;28;20179;-66
2024/01/07 03:45:52;;;;;;;2.77;2.57;;;;;;;7.42;100.00;-24024.16;5030563;28;20181;-67
2024/01/07 03:48:17;;;;;;;2.87;2.63;;;;;;;7.05;100.00;-24013.81;5030543;28;20224;-67
2024/01/07 03:50:43;;;;;;;3.13;2.93;;;;;;;7.05;100.00;-24013.94;5030135;28;20183;-66
2024/01/07 03:53:09;;;;;;;3.83;2.70;;;;;;;7.26;100.00;-24019.75;5031890;28;20209;-67
2024/01/07 03:55:34;;;;;;;2.70;2.50;;;;;;;7.03;100.00;-24013.38;5034462;28;20590;-68
2024/01/07 03:57:59;;;;;;;3.93;2.77;;;;;;;7.22;100.00;-24018.47;5034154;28;20231;-68
2024/01/07 04:00:25;;;;;;;2.37;2.23;;;;;;;7.11;100.00;-24015.50;5034391;28;20554;-69
2024/01/07 04:02:50;;;;;;;3.23;2.93;;;;;;;7.14;100.00;-24016.34;5034410;28;20262;-67
2024/01/07 04:05:15;;;;;;;2.07;1.97;;;;;;;6.92;100.00;-24010.13;5034028;28;20175;-65
2024/01/07 04:07:41;;;;;;;4.20;3.90;;;;;;;6.97;100.00;-24011.66;5033764;28;20221;-67
2024/01/07 04:10:06;;;;;;;4.30;3.90;;;;;;;6.92;100.00;-24010.25;5034145;28;20211;-69
2024/01/07 04:12:32;;;;;;;2.67;2.47;;;;;;;6.97;100.00;-24011.66;5033515;28;20492;-68
2024/01/07 04:14:57;;;;;;;4.67;3.67;;;;;;;7.01;100.00;-24012.66;5033676;28;20171;-66
2024/01/07 04:17:24;;;;;;;2.80;2.60;;;;;;;7.00;100.00;-24012.53;5033666;28;20207;-67
2024/01/07 04:19:49;;;;;;;2.77;2.57;;;;;;;6.82;100.00;-24007.28;5033792;28;20190;-68
2024/01/07 04:22:15;;;;;;;2.67;2.23;;;;;;;7.04;100.00;-24013.50;5033960;28;20175;-68
2024/01/07 04:24:41;;;;;;;3.13;2.83;;;;;;;7.13;100.00;-24015.94;5033900;28;20233;-69
2024/01/07 04:27:07;;;;;;;2.57;1.90;;;;;;;7.14;100.00;-24016.34;5033607;28;20655;-65
2024/01/07 04:29:32;;;;;;;3.23;3.00;;;;;;;6.90;100.00;-24009.69;5033583;28;20176;-67
2024/01/07 04:31:57;;;;;;;3.67;3.37;;;;;;;6.97;100.00;-24011.66;5038780;28;20219;-64
2024/01/07 04:34:24;;;;;;;3.03;2.73;;;;;;;7.18;100.00;-24017.34;5036735;28;20206;-68
2024/01/07 04:36:49;;;;;;;7.80;3.17;;;;;;;7.08;100.00;-24014.78;5033381;28;20199;-65
2024/01/07 04:39:15;;;;;;;4.40;3.33;;;;;;;6.79;100.00;-24006.44;5033572;28;20274;-67
2024/01/07 04:41:41;;;;;;;2.63;2.37;;;;;;;6.99;100.00;-24012.25;5033457;28;20167;-66
2024/01/07 04:44:06;;;;;;;4.87;3.73;;;;;;;7.02;100.00;-24013.09;5033706;28;20686;-68
2024/01/07 04:46:38;;;;;;;3.53;3.23;;;;;;;7.03;100.00;-24013.22;5033423;28;20183;-66
2024/01/07 04:49:03;;;;;;;5.87;4.10;;;;;;;7.21;100.00;-24018.19;5033314;28;20198;-65
2024/01/07 04:51:28;;;;;;;3.93;3.13;;;;;;;7.30;100.00;-24020.88;5033500;28;20182;-68
2024/01/07 04:53:54;;;;;;;2.80;2.33;;;;;;;7.21;100.00;-24018.19;5033654;28;20176;-68
2024/01/07 04:56:20;;;;;;;2.33;2.23;;;;;;;6.89;100.00;-24009.41;5032810;28;20249;-67
2024/01/07 04:58:45;;;;;;;2.97;2.57;;;;;;;7.04;100.00;-24013.50;5033515;28;20180;-68
2024/01/07 05:01:11;;;;;;;2.77;2.50;;;;;;;6.84;100.00;-24008.00;5033348;28;20176;-66
2024/01/07 05:03:37;;;;;;;3.77;3.47;;;;;;;7.00;100.00;-24012.53;5033215;28;20215;-66
2024/01/07 05:06:04;;;;;;;5.40;4.10;;;;;;;6.97;100.00;-24011.53;5033068;28;20262;-66
2024/01/07 05:08:29;;;;;;;5.17;4.03;;;;;;;7.05;100.00;-24013.94;5032842;28;20190;-68
2024/01/07 05:10:55;;;;;;;3.13;2.93;;;;;;;6.85;100.00;-24008.13;5036333;28;20171;-67
2024/01/07 05:13:20;;;;;;;4.23;2.47;;;;;;;6.80;100.00;-24006.84;5037669;28;20278;-67
2024/01/07 05:15:46;;;;;;;2.23;2.10;;;;;;;6.99;100.00;-24012.09;5033081;28;20183;-67
2024/01/07 05:18:12;;;;;;;3.40;3.10;;;;;;;6.99;100.00;-24012.09;5032243;28;20202;-67
2024/01/07 05:20:37;;;;;;;4.47;2.90;;;;;;;6.97;100.00;-24011.66;5032222;28;20183;-68
2024/01/07 05:23:03;;;;;;;2.63;2.43;;;;;;;7.18;100.00;-24017.34;5032823;28;20172;-68
2024/01/07 05:25:29;;;;;;;3.10;2.90;;;;;;;7.01;100.00;-24012.81;5032354;28;20179;-67
2024/01/07 05:27:54;;;;;;;2.33;2.13;;;;;;;6.83;100.00;-24007.56;5032829;28;20172;-69
2024/01/07 05:30:20;;;;;;;2.97;2.77;;;;;;;6.86;100.00;-24008.56;5032608;28;20178;-68
2024/01/07 05:32:48;;;;;;;2.80;2.60;;;;;;;6.94;100.00;-24010.81;5032681;28;20314;-68
2024/01/07 05:35:13;;;;;;;4.03;3.07;;;;;;;6.94;100.00;-24010.81;5040182;28;20182;-65
2024/01/07 05:37:38;;;;;;;3.10;2.73;;;;;;;6.65;100.00;-24002.72;5032284;28;20222;-67
2024/01/07 05:40:06;;;;;;;2.70;2.50;;;;;;;6.86;100.00;-24008.41;5032169;28;20171;-68
2024/01/07 05:42:31;;;;;;;1.83;1.73;;;;;;;6.72;100.00;-24004.56;5032422;28;20176;-67
2024/01/07 05:44:56;;;;;;;2.97;2.77;;;;;;;6.99;100.00;-24012.09;5032614;28;20198;-68
2024/01/07 05:47:22;;;;;;;3.23;2.57;;;;;;;6.73;100.00;-24004.72;5032335;28;20181;-66
2024/01/07 05:49:47;;;;;;;2.93;2.67;;;;;;;6.70;100.00;-24003.88;5032362;28;20184;-69
2024/01/07 05:52:13;;;;;;;3.27;3.07;;;;;;;6.70;100.00;-24003.88;5031969;28;20175;-70
2024/01/07 05:54:38;;;;;;;2.33;1.90;;;;;;;6.51;100.00;-23998.75;5030677;28;20231;-64
2024/01/07 05:57:06;;;;;;;2.57;2.37;;;;;;;6.45;100.00;-23997.06;5031757;28;20281;-65
2024/01/07 05:59:32;;;;;;;2.23;2.13;;;;;;;6.80;100.00;-24006.84;5031609;28;20180;-69
2024/01/07 06:02:00;;;;;;;2.00;1.90;;;;;;;7.07;100.00;-24014.50;5030259;28;20534;-69
2024/01/07 06:04:26;;;;;;;2.50;2.30;;;;;;;6.97;100.00;-24011.66;5031707;28;20254;-67
2024/01/07 06:06:51;;;;;;;3.33;3.10;;;;;;;6.92;100.00;-24010.13;5031710;28;20251;-68
2024/01/07 06:09:27;;;;;;;;;;;;;;;;;;;;;
2024/01/07 06:11:55;;;;;;;1.93;1.83;;;;;;;6.96;100.00;-24011.38;5031034;28;20641;-69
2024/01/07 06:14:22;;;;;;;2.40;2.23;;;;;;;6.92;100.00;-24010.25;5031447;28;20175;-64
2024/01/07 06:16:48;;;;;;;5.50;2.87;;;;;;;6.86;100.00;-24008.41;5030784;28;20195;-66
2024/01/07 06:19:16;;;;;;;2.77;2.57;;;;;;;6.78;100.00;-24006.28;5031016;28;20177;-69
2024/01/07 06:21:42;;;;;;;3.10;2.90;;;;;;;6.91;100.00;-24009.97;5031094;28;20258;-65
2024/01/07 06:24:10;;;;;;;2.77;2.50;;;;;;;7.25;100.00;-24019.34;5031556;28;20258;-68
2024/01/07 06:26:36;;;;;;;2.80;2.60;;;;;;;7.49;100.00;-24026.28;5030820;28;20632;-67
2024/01/07 06:29:01;;;;;;;2.10;2.00;;;;;;;7.47;100.00;-24025.72;5054423;28;20195;-68
2024/01/07 06:31:30;;;;;;;4.33;3.40;;;;;;;7.31;100.00;-24021.16;5020581;28;20651;-67
2024/01/07 06:33:58;;;;;;;4.43;2.90;;;;;;;7.46;100.00;-24025.44;5036853;28;20588;-67
2024/01/07 06:36:25;;;;;;;4.17;2.80;;;;;;;7.29;100.00;-24020.47;5021049;28;20192;-67
2024/01/07 06:38:53;;;;;;;2.53;2.10;;;;;;;7.30;100.00;-24020.88;5029905;28;20175;-68
2024/01/07 06:41:19;;;;;;;2.87;2.50;;;;;;;7.50;100.00;-24026.56;5028636;28;20257;-67
2024/01/07 06:43:44;;;;;;;2.77;2.57;;;;;;;7.60;100.00;-24029.25;5030168;28;20265;-66
2024/01/07 06:46:10;;;;;;;3.80;3.50;;;;;;;7.52;100.00;-24026.97;5030852;28;20214;-67
2024/01/07 06:48:35;;;;;;;2.70;2.47;;;;;;;7.29;100.00;-24020.47;5030870;28;20258;-67
2024/01/07 06:51:01;;;;;;;5.37;4.83;;;;;;;7.58;100.00;-24028.69;5031032;28;20273;-66
2024/01/07 06:53:26;;;;;;;4.33;4.00;;;;;;;7.81;100.00;-24035.06;5029841;28;20187;-66
2024/01/07 06:55:51;;;;;;;3.83;3.53;;;;;;;8.02;100.00;-24040.88;5030781;28;20532;-68
2024/01/07 06:58:17;;;;;;;2.67;2.47;;;;;;;8.06;100.00;-24042.16;5031016;28;20655;-65
2024/01/07 07:00:42;;;;;;;5.07;4.57;;;;;;;7.91;100.00;-24038.03;5030952;28;20170;-65
2024/01/07 07:03:08;;;;;;;5.60;3.72;;;;;;;8.21;100.00;-24046.41;5030684;28;20252;-66
2024/01/07 07:05:34;;;;;;;4.47;4.07;;;;;;;8.08;100.00;-24042.72;5045558;28;20179;-68
2024/01/07 07:07:59;;;;;;;4.85;3.25;;;;;;;8.03;100.00;-24041.16;5031050;28;20191;-67
2024/01/07 07:10:25;;;;;;;4.00;3.70;;;;;;;8.23;100.00;-24046.97;5030504;28;20647;-71
2024/01/07 07:12:50;;;;;;;5.57;4.28;;;;;;;8.20;100.00;-24045.97;5029081;28;20685;-66
2024/01/07 07:15:16;;;;;;;3.67;2.67;;;;;;;8.23;100.00;-24046.97;5030166;28;20250;-66
2024/01/07 07:17:41;;;;;;;3.60;3.03;;;;;;;8.21;100.00;-24046.25;5030453;28;20207;-68
2024/01/07 07:20:08;;;;;;;3.50;3.20;;;;;;;8.14;100.00;-24044.28;5029649;28;20206;-67
2024/01/07 07:22:33;;;;;;;2.60;2.40;;;;;;;8.19;100.00;-24045.69;5030302;28;20262;-68
2024/01/07 07:24:59;;;;;;;3.63;2.50;;;;;;;7.93;100.00;-24038.59;5030582;28;20269;-69
2024/01/07 07:27:24;;;;;;;2.83;2.65;;;;;;;8.09;100.00;-24042.84;5030694;28;20189;-68
2024/01/07 07:29:49;;;;;;;2.38;2.17;;;;;;;7.89;100.00;-24037.31;5034178;28;20187;-67
2024/01/07 07:32:15;;;;;;;3.92;2.85;;;;;;;8.06;100.00;-24042.16;5034810;28;20223;-66
2024/01/07 07:34:40;;;;;;;2.97;2.77;;;;;;;7.99;100.00;-24040.31;5034583;28;20229;-67
2024/01/07 07:37:05;;;;;;;2.42;2.28;;;;;;;7.90;100.00;-24037.75;5034328;28;20257;-65
2024/01/07 07:39:31;;;;;;;2.40;2.20;;;;;;;7.90;100.00;-24037.63;5039185;28;20179;-65
2024/01/07 07:41:56;;;;;;;3.50;3.20;;;;;;;7.97;100.00;-24039.59;5037514;28;20209;-68
2024/01/07 07:44:21;;;;;;;3.23;3.03;;;;;;;8.07;100.00;-24042.28;5034280;28;20175;-66
2024/01/07 07:46:47;;;;;;;3.80;2.63;;;;;;;8.35;100.00;-24050.22;5034170;28;20214;-65
2024/01/07 07:49:12;;;;;;;5.37;2.93;;;;;;;8.04;100.00;-24041.44;5033993;28;20537;-66
2024/01/07 07:51:38;;;;;;;3.20;2.85;;;;;;;7.72;100.00;-24032.50;5034022;28;20171;-67
2024/01/07 07:54:04;;;;;;;3.08;2.63;;;;;;;8.20;100.00;-24045.97;5034017;28;20549;-67
2024/01/07 07:56:29;;;;;;;2.27;2.13;;;;;;;8.17;100.00;-24045.25;5033872;28;20191;-66
2024/01/07 07:58:54;;;;;;;4.55;4.15;;;;;;;8.61;100.00;-24057.56;5034069;28;20174;-69
2024/01/07 08:01:20;;;;;;;4.35;3.83;;;;;;;8.63;100.00;-24058.16;5034519;28;20237;-66
2024/01/07 08:03:45;;;;;;;3.35;3.08;;;;;;;8.48;100.00;-24053.75;5033833;28;20167;-65
2024/01/07 08:06:11;;;;;;;6.20;3.28;;;;;;;8.62;100.00;-24057.88;5034014;28;20171;-69
2024/01/07 08:08:36;;;;;;;2.63;2.30;;;;;;;9.08;100.00;-24070.72;5033768;28;20489;-69
2024/01/07 08:11:02;;;;;;;2.38;2.17;;;;;;;9.40;100.00;-24079.63;5034115;28;20164;-67
2024/01/07 08:13:27;;;;;;;3.13;2.78;;;;;;;9.33;100.00;-24077.66;5033796;28;20246;-65
2024/01/07 08:15:53;;;;;;;2.75;2.55;;;;;;;9.60;100.00;-24085.28;5033753;28;20319;-69
2024/01/07 08:18:18;;;;;;;3.05;2.85;;;;;;;9.70;100.00;-24088.13;5033567;28;20281;-67
2024/01/07 08:20:43;;;;;;;2.42;2.25;;;;;;;10.01;100.00;-24096.72;5033650;28;20182;-68
2024/01/07 08:23:10;;;;;;;3.67;3.05;;;;;;;10.08;100.00;-24098.72;5033560;28;20172;-68
2024/01/07 08:25:35;;;;;;;2.78;2.58;;;;;;;9.87;100.00;-24092.78;5033483;28;20552;-64
2024/01/07 08:28:01;;;;;;;3.78;3.25;;;;;;;9.93;100.00;-24094.47;5033683;28;20180;-65
2024/01/07 08:30:26;;;;;;;3.03;2.72;;;;;;;9.85;100.00;-24092.22;5033350;28;20258;-67
2024/01/07 08:32:51;;;;;;;3.30;3.00;;;;;;;10.03;100.00;-24097.31;5033272;28;20250;-68
2024/01/07 08:35:17;;;;;;;2.40;2.20;;;;;;;10.38;100.00;-24106.91;5033068;28;20209;-65
2024/01/07 08:37:42;;;;;;;2.58;2.40;;;;;;;10.56;100.00;-24111.97;5033225;28;20207;-66
2024/01/07 08:40:09;;;;;;;2.05;1.95;;;;;;;10.66;100.00;-24114.81;5032897;28;20171;-67
2024/01/07 08:42:36;;;;;;;3.88;3.13;;;;;;;10.66;100.00;-24114.81;5040672;28;20168;-68
2024/01/07 08:45:03;;;;;;;3.83;3.17;;;;;;;10.74;100.00;-24116.91;5032031;28;20555;-65
2024/01/07 08:47:31;;;;;;;2.80;2.60;;;;;;;10.68;100.00;-24115.38;5033154;28;20595;-67
2024/01/07 08:49:56;;;;;;;3.08;2.60;;;;;;;11.03;100.00;-24125.09;5033272;28;20631;-67
2024/01/07 08:52:22;;;;;;;4.03;3.15;;;;;;;11.26;100.00;-24131.44;5033195;28;20222;-65
2024/01/07 08:54:47;;;;;;;3.15;2.25;;;;;;;11.01;100.00;-24124.53;5033022;28;20254;-64
2024/01/07 08:57:13;;;;;;;2.95;2.75;;;;;;;11.00;100.00;-24124.25;5033000;28;20248;-69
2024/01/07 08:59:38;;;;;;;3.30;2.80;;;;;;;11.34;100.00;-24133.69;5033474;28;20258;-67
2024/01/07 09:02:03;;;;;;;2.42;2.22;;;;;;;11.36;100.00;-24134.41;5032730;28;20175;-64
2024/01/07 09:04:29;;;;;;;2.10;1.90;;;;;;;11.74;100.00;-24144.84;5032887;28;20175;-66
2024/01/07 09:06:54;;;;;;;2.78;2.45;;;;;;;11.69;100.00;-24143.41;5033149;28;20175;-67
2024/01/07 09:09:20;;;;;;;3.78;2.35;;;;;;;11.93;100.00;-24150.19;5032772;28;20281;-69
2024/01/07 09:11:45;;;;;;;2.38;2.17;;;;;;;12.16;100.00;-24154.66;5032842;28;20167;-65
2024/01/07 09:14:11;;;;;;;2.38;2.05;;;;;;;11.76;100.00;-24145.41;5031184;28;20175;-68
2024/01/07 09:16:36;;;;;;;2.47;2.25;;;;;;;11.29;100.00;-24132.44;5032023;28;20717;-69
2024/01/07 09:19:02;;;;;;;3.72;3.13;;;;;;;11.38;100.00;-24134.81;5032432;28;20175;-68
2024/01/07 09:21:27;;;;;;;2.85;2.60;;;;;;;11.55;100.00;-24139.47;5032414;28;20552;-67
2024/01/07 09:23:52;;;;;;;3.50;3.00;;;;;;;11.30;100.00;-24132.56;5032590;28;20174;-66
2024/01/07 09:26:18;;;;;;;2.40;2.17;;;;;;;11.55;100.00;-24139.63;5032611;28;20313;-67
2024/01/07 09:28:44;;;;;;;4.65;3.05;;;;;;;11.27;100.00;-24131.88;5032228;28;20152;-65
2024/01/07 09:31:09;;;;;;;4.88;2.63;;;;;;;11.23;100.00;-24130.75;5031638;28;20183;-65
2024/01/07 09:33:35;;;;;;;3.90;3.30;;;;;;;11.40;100.00;-24135.38;5032118;28;20240;-68
2024/01/07 09:36:00;;;;;;;4.45;2.97;;;;;;;11.45;100.00;-24136.94;5032124;28;20504;-67
2024/01/07 09:38:26;;;;;;;4.72;2.63;;;;;;;11.60;100.00;-24140.88;5032476;28;20163;-68
2024/01/07 09:40:53;;;;;;;3.40;2.80;;;;;;;11.63;100.00;-24141.72;5032336;28;20511;-68
2024/01/07 09:43:19;;;;;;;2.70;2.28;;;;;;;11.70;100.00;-24143.69;5037974;28;20175;-65
2024/01/07 09:45:47;;;;;;;3.92;2.85;;;;;;;11.91;100.00;-24149.63;5031877;28;20270;-64
2024/01/07 09:48:14;;;;;;;2.83;2.45;;;;;;;11.80;100.00;-24146.53;5032000;28;20175;-68
2024/01/07 09:50:39;;;;;;;2.92;2.58;;;;;;;11.91;100.00;-24149.63;5031219;28;20255;-67
2024/01/07 09:53:07;;;;;;;2.47;2.28;;;;;;;11.90;100.00;-24149.34;5031877;28;20215;-68
2024/01/07 09:55:51;;;;;;;2.25;2.05;;;;;;;12.05;100.00;-24153.56;5031657;28;20233;-65
2024/01/07 09:58:16;;;;;;;2.65;2.45;;;;;;;11.79;100.00;-24146.25;5031666;28;20195;-67
2024/01/07 10:00:42;;;;;;;1.73;1.63;;;;;;;11.78;100.00;-24146.09;5031837;28;20264;-66
2024/01/07 10:03:07;;;;;;;2.35;2.22;;;;;;;12.11;100.00;-24155.25;5031692;28;20575;-68
2024/01/07 10:05:32;;;;;;;2.63;2.38;;;;;;;12.10;100.00;-24154.97;5031600;28;20171;-66
2024/01/07 10:07:58;;;;;;;2.05;1.73;;;;;;;12.23;100.00;-24156.75;5031737;28;20290;-64
2024/01/07 10:10:23;;;;;;;2.25;1.98;;;;;;;12.40;100.00;-24161.53;5031341;28;20266;-64
2024/01/07 10:12:49;;;;;;;3.60;2.78;;;;;;;12.46;100.00;-24162.94;5029463;28;20167;-66
2024/01/07 10:15:14;;;;;;;2.60;2.00;;;;;;;12.66;100.00;-24168.72;5029800;28;20183;-65
2024/01/07 10:17:42;;;;;;;2.28;2.05;;;;;;;12.46;100.00;-23843.34;5029611;28;20566;-66
2024/01/07 10:20:09;;;;;;;2.60;2.40;;;;;;;12.69;100.00;-23529.97;5029391;28;20155;-66
2024/01/07 10:22:36;;;;;;;3.85;2.63;;;;;;;12.87;100.00;-21615.00;5029618;28;20270;-67
2024/01/07 10:25:02;;;;;;;1.92;1.83;;;;;;;12.90;100.00;-21615.72;5029372;28;20167;-66
2024/01/07 10:27:27;;;;;;;3.40;2.30;;;;;;;12.81;100.00;-20333.50;5030625;28;20281;-65
2024/01/07 10:29:55;;;;;;;2.15;1.45;;;;;;;13.02;100.00;-20337.84;5031713;28;20168;-68
2024/01/07 10:32:20;;;;;;;2.25;2.05;;;;;;;12.95;100.00;-17453.16;5031296;28;20222;-64
2024/01/07 10:34:47;;;;;;;1.27;1.27;;;;;;;13.11;100.00;-18738.06;5031347;28;20172;-66
2024/01/07 10:37:13;;;;;;;2.13;1.50;;;;;;;13.18;100.00;-18098.25;5031214;28;20258;-66
2024/01/07 10:39:39;;;;;;;1.70;1.45;;;;;;;13.40;100.00;-18102.25;5031435;28;20195;-64
2024/01/07 10:42:06;;;;;;;1.52;1.20;;;;;;;13.34;100.00;-16176.78;5062973;28;20189;-67
2024/01/07 10:44:32;;;;;;;1.40;1.23;;;;;;;13.62;100.00;-17464.63;5037378;28;20175;-65
2024/01/07 10:46:59;;;;;;;3.25;1.90;;;;;;;13.77;100.00;-17788.00;5031460;28;20171;-68
2024/01/07 10:49:26;;;;;;;1.75;1.63;;;;;;;13.76;100.00;-17466.91;5031481;28;20233;-66
2024/01/07 10:52:05;;;;;;;1.70;1.60;;;;;;;14.07;100.00;-16508.75;5031303;28;20186;-69
2024/01/07 10:54:33;;;;;;;1.65;1.55;;;;;;;14.42;100.00;-15871.41;5063134;28;20561;-67
2024/01/07 10:57:04;;;;;;;1.58;1.48;;;;;;;14.83;100.00;-12015.28;5031175;28;20332;-67
2024/01/07 10:59:31;;;;;;;1.05;1.00;;;;;;;15.12;100.00;-5245.13;5031651;28;20258;-67
2024/01/07 11:01:58;;;;;;;1.92;1.83;;;;;;;15.37;100.00;1868.63;5031044;28;20179;-65
2024/01/07 11:04:31;;;;;;;2.05;1.88;;;;;;;15.53;100.00;5758.25;5031096;28;20172;-67
2024/01/07 11:07:03;;;;;;;1.38;1.27;;;;;;;15.53;100.00;8676.75;5031011;28;20262;-67
2024/01/07 11:09:37;;;;;;;3.72;2.60;;;;;;;15.59;100.00;9002.78;5031252;28;20712;-67
2024/01/07 11:12:04;;;;;;;1.58;1.48;;;;;;;15.42;100.00;11269.84;5031084;28;20587;-65
2024/01/07 11:14:45;;;;;;;1.48;1.08;;;;;;;15.94;100.00;19091.84;5031125;28;20182;-66
2024/01/07 11:17:13;;;;;;;1.55;1.45;;;;;;;15.93;100.00;28875.41;5031090;28;20730;-67
2024/01/07 11:19:48;;;;;;;1.27;1.17;;;;;;;15.57;100.00;56047.09;5030956;28;20178;-64